Time;durP1;ratioP1;P1;durP2;ratioP2;P2;SDS_P1;SDS_P2;PMS_P1;PMS_P2;Temp;Humidity;BMP_temperature;BMP_pressure;BME280_temperature;BME280_humidity;BME280_pressure;Samples;Min_cycle;Max_cycle;Signal;HPM_P1;HPM_P2
2022/06/11 00:00:57;;;;;;;0.00;0.00;;;;;;;18.46;74.68;100931.78;5072885;28;20174;-72
2022/06/11 00:03:22;;;;;;;0.00;0.00;;;;;;;18.52;74.18;100928.41;5072876;28;20205;-72
2022/06/11 00:05:49;;;;;;;0.00;0.00;;;;;;;18.52;73.82;100930.38;5072679;28;20182;-72
2022/06/11 00:08:15;;;;;;;0.00;0.00;;;;;;;18.56;73.46;100928.50;5072263;28;20216;-71
2022/06/11 00:10:40;;;;;;;0.10;0.00;;;;;;;18.55;73.01;100929.66;5072980;28;20274;-72
2022/06/11 00:13:06;;;;;;;0.00;0.00;;;;;;;18.54;73.15;100931.63;5073141;28;20171;-71
2022/06/11 00:15:32;;;;;;;0.00;0.00;;;;;;;18.55;73.12;100924.13;5072544;28;20186;-74
2022/06/11 00:17:58;;;;;;;0.00;0.00;;;;;;;18.55;72.74;100927.69;5071958;28;20179;-72
2022/06/11 00:20:26;;;;;;;0.00;0.00;;;;;;;18.58;72.85;100923.41;5072671;28;20243;-71
2022/06/11 00:22:52;;;;;;;0.00;0.00;;;;;;;18.62;73.02;100927.06;5071153;28;20213;-72
2022/06/11 00:25:18;;;;;;;0.00;0.00;;;;;;;18.59;72.55;100925.03;5072862;28;20682;-73
2022/06/11 00:27:43;;;;;;;0.00;0.00;;;;;;;18.60;72.15;100926.63;5072057;28;20257;-72
2022/06/11 00:30:11;;;;;;;0.00;0.00;;;;;;;18.59;72.34;100920.28;5071938;28;20308;-73
2022/06/11 00:32:38;;;;;;;0.00;0.00;;;;;;;18.62;72.22;100918.78;5072280;28;20170;-72
2022/06/11 00:35:05;;;;;;;0.00;0.00;;;;;;;18.66;72.81;100914.16;5072304;28;20178;-71
2022/06/11 00:37:31;;;;;;;0.00;0.00;;;;;;;18.68;71.82;100906.34;5071594;28;20182;-73
2022/06/11 00:39:57;;;;;;;0.00;0.00;;;;;;;18.64;71.96;100911.75;5072192;28;20167;-72
2022/06/11 00:42:27;;;;;;;0.00;0.00;;;;;;;18.64;72.05;100910.94;5072005;28;20185;-72
2022/06/11 00:45:14;;;;;;;0.20;0.20;;;;;;;18.66;71.96;100903.09;5072442;28;20185;-72
2022/06/11 00:47:41;;;;;;;0.00;0.00;;;;;;;18.65;71.97;100905.06;5071159;28;20178;-72
2022/06/11 00:50:37;;;;;;;0.00;0.00;;;;;;;18.63;72.17;100901.00;5072036;28;20239;-73
2022/06/11 00:53:08;;;;;;;0.00;0.00;;;;;;;18.61;71.96;100889.50;5072025;28;20175;-72
2022/06/11 00:55:36;;;;;;;0.00;0.00;;;;;;;18.62;71.77;100900.19;5071931;28;20220;-72
2022/06/11 00:58:10;;;;;;;0.00;0.00;;;;;;;18.65;71.99;100893.97;5071230;28;20182;-72
2022/06/11 01:00:46;;;;;;;0.00;0.00;;;;;;;18.59;71.93;100889.84;5071839;28;20186;-72
2022/06/11 01:03:18;;;;;;;0.00;0.00;;;;;;;18.63;71.80;100887.16;5071803;28;20506;-71
2022/06/11 01:05:49;;;;;;;0.00;0.00;;;;;;;18.61;72.07;100895.81;5071708;28;20177;-72
2022/06/11 01:08:21;;;;;;;0.00;0.00;;;;;;;18.52;72.61;100883.34;5071077;28;20197;-71
2022/06/11 01:10:59;;;;;;;0.17;0.17;;;;;;;18.51;72.80;100890.00;5071115;28;20279;-71
2022/06/11 01:13:46;;;;;;;0.00;0.00;;;;;;;18.54;72.54;100890.13;5071443;28;20178;-72
2022/06/11 01:16:26;;;;;;;0.00;0.00;;;;;;;18.61;72.11;100887.53;5071605;28;20384;-73
2022/06/11 01:19:19;;;;;;;0.00;0.00;;;;;;;18.47;72.40;100889.09;5070751;28;20304;-72
2022/06/11 01:22:19;;;;;;;0.00;0.00;;;;;;;18.51;72.26;100888.03;5070577;28;20618;-72
2022/06/11 01:25:09;;;;;;;0.00;0.00;;;;;;;18.65;71.84;100882.91;5071374;28;20171;-72
2022/06/11 01:27:47;;;;;;;0.00;0.00;;;;;;;18.63;71.68;100888.00;5070470;28;20179;-72
2022/06/11 01:30:19;;;;;;;0.00;0.00;;;;;;;18.70;71.65;100888.19;5071239;28;20204;-72
2022/06/11 01:33:03;;;;;;;0.00;0.00;;;;;;;18.72;71.94;100882.31;5071112;28;20191;-72
2022/06/11 01:35:34;;;;;;;0.00;0.00;;;;;;;18.63;72.09;100876.09;5070876;28;20201;-73
2022/06/11 01:38:07;;;;;;;0.00;0.00;;;;;;;18.49;72.36;100870.97;5070403;28;20198;-72
2022/06/11 01:40:35;;;;;;;0.00;0.00;;;;;;;18.43;72.70;100864.13;5070970;28;20175;-73
2022/06/11 01:43:25;;;;;;;0.00;0.00;;;;;;;18.39;72.74;100865.97;5071141;28;20171;-73
2022/06/11 01:45:51;;;;;;;0.20;0.20;;;;;;;18.45;72.45;100861.78;5070812;28;20181;-71
2022/06/11 01:48:22;;;;;;;0.00;0.00;;;;;;;18.41;72.16;100856.16;5070082;28;20542;-72
2022/06/11 01:51:24;;;;;;;0.00;0.00;;;;;;;18.43;72.18;100859.38;5070775;28;20629;-72
2022/06/11 01:54:33;;;;;;;0.00;0.00;;;;;;;18.40;71.91;100860.09;5070743;28;20657;-71
2022/06/11 01:57:17;;;;;;;0.00;0.00;;;;;;;18.38;72.01;100859.66;5070474;28;20208;-72
2022/06/11 01:59:56;;;;;;;0.00;0.00;;;;;;;18.39;72.25;100849.38;5070340;28;20220;-72
2022/06/11 02:02:49;;;;;;;0.00;0.00;;;;;;;18.34;72.29;100855.97;5071076;28;20261;-73
2022/06/11 02:05:44;;;;;;;2.57;2.47;;;;;;;18.30;72.42;100837.66;5070512;28;20261;-71
2022/06/11 02:08:28;;;;;;;0.13;0.13;;;;;;;18.24;72.40;100842.66;5069947;28;20182;-73
2022/06/11 02:11:02;;;;;;;0.00;0.00;;;;;;;18.14;72.69;100845.94;5069253;28;20576;-72
2022/06/11 02:14:01;;;;;;;0.47;0.47;;;;;;;18.18;72.74;100844.06;5070457;28;20637;-72
2022/06/11 02:16:47;;;;;;;0.00;0.00;;;;;;;18.25;72.78;100846.22;5058883;28;20183;-74
2022/06/11 02:19:23;;;;;;;0.00;0.00;;;;;;;18.32;72.15;100847.22;5070066;28;20174;-72
2022/06/11 02:21:57;;;;;;;0.00;0.00;;;;;;;18.34;72.36;100847.66;5068650;28;20175;-72
2022/06/11 02:24:30;;;;;;;0.00;0.00;;;;;;;18.37;71.75;100849.75;5070315;28;20166;-73
2022/06/11 02:26:59;;;;;;;0.00;0.00;;;;;;;18.27;72.10;100849.44;5070100;28;20179;-73
2022/06/11 02:29:26;;;;;;;2.33;1.00;;;;;;;18.28;72.25;100849.09;5070051;28;20190;-73
2022/06/11 02:32:07;;;;;;;0.00;0.00;;;;;;;18.21;72.49;100848.88;5070190;28;20206;-72
2022/06/11 02:34:36;;;;;;;0.00;0.00;;;;;;;18.32;72.16;100849.19;5070307;28;20194;-72
2022/06/11 02:37:11;;;;;;;0.00;0.00;;;;;;;18.33;72.18;100851.59;5070054;28;20175;-71
2022/06/11 02:39:41;;;;;;;0.00;0.00;;;;;;;18.35;72.60;100854.00;5070332;28;20170;-72
2022/06/11 02:42:08;;;;;;;0.00;0.00;;;;;;;18.28;72.59;100853.81;5070101;28;20189;-72
2022/06/11 02:44:35;;;;;;;0.00;0.00;;;;;;;18.21;72.88;100854.41;5070063;28;20460;-72
2022/06/11 02:47:00;;;;;;;0.00;0.00;;;;;;;18.30;72.66;100865.31;5069806;28;20183;-72
2022/06/11 02:49:29;;;;;;;0.00;0.00;;;;;;;18.25;72.60;100858.09;5070644;28;20533;-72
2022/06/11 02:51:58;;;;;;;0.00;0.00;;;;;;;18.30;73.12;100855.06;5070643;28;20455;-72
2022/06/11 02:54:25;;;;;;;0.00;0.00;;;;;;;18.24;72.94;100858.47;5070603;28;20212;-71
2022/06/11 02:56:52;;;;;;;0.00;0.00;;;;;;;18.29;72.81;100853.47;5069926;28;20179;-72
2022/06/11 02:59:18;;;;;;;0.00;0.00;;;;;;;18.22;72.67;100856.00;5070026;28;20180;-71
2022/06/11 03:01:44;;;;;;;0.00;0.00;;;;;;;18.24;72.58;100858.47;5069890;28;20186;-72
2022/06/11 03:04:10;;;;;;;0.00;0.00;;;;;;;18.22;72.28;100855.22;5069976;28;20182;-73
2022/06/11 03:06:41;;;;;;;0.00;0.00;;;;;;;18.30;72.31;100857.84;5069862;28;20336;-73
2022/06/11 03:09:08;;;;;;;0.00;0.00;;;;;;;18.26;72.42;100856.94;5069876;28;20159;-72
2022/06/11 03:11:33;;;;;;;0.00;0.00;;;;;;;18.25;72.69;100860.06;5069823;28;20241;-72
2022/06/11 03:13:59;;;;;;;0.00;0.00;;;;;;;18.33;72.53;100856.31;5069918;28;20257;-72
2022/06/11 03:16:25;;;;;;;0.00;0.00;;;;;;;18.33;72.03;100853.56;5069884;28;20171;-71
2022/06/11 03:18:50;;;;;;;0.00;0.00;;;;;;;18.30;72.00;100862.56;5069240;28;20214;-71
2022/06/11 03:21:15;;;;;;;0.00;0.00;;;;;;;18.34;72.18;100863.47;5069749;28;20221;-73
2022/06/11 03:23:41;;;;;;;0.00;0.00;;;;;;;18.33;72.19;100870.94;5068895;28;20186;-71
2022/06/11 03:26:07;;;;;;;0.00;0.00;;;;;;;18.25;72.77;100869.16;5069754;28;20175;-71
2022/06/11 03:28:33;;;;;;;0.00;0.00;;;;;;;18.34;72.37;100858.72;5069388;28;20167;-71
2022/06/11 03:30:58;;;;;;;0.00;0.00;;;;;;;18.27;72.56;100861.31;5069642;28;20229;-72
2022/06/11 03:33:24;;;;;;;0.00;0.00;;;;;;;18.31;72.96;100870.50;5072508;28;20221;-71
2022/06/11 03:35:51;;;;;;;0.00;0.00;;;;;;;18.30;72.74;100868.09;5071971;28;20262;-72
2022/06/11 03:38:17;;;;;;;0.00;0.00;;;;;;;18.28;73.14;100870.41;5072570;28;20175;-71
2022/06/11 03:40:43;;;;;;;0.17;0.17;;;;;;;18.26;73.07;100869.97;5073281;28;20700;-72
2022/06/11 03:43:09;;;;;;;0.00;0.00;;;;;;;18.22;72.78;100877.34;5073246;28;20174;-72
2022/06/11 03:45:36;;;;;;;0.00;0.00;;;;;;;18.31;72.67;100880.75;5073137;28;20243;-71
2022/06/11 03:48:02;;;;;;;0.00;0.00;;;;;;;18.32;72.86;100877.66;5072449;28;20183;-72
2022/06/11 03:50:32;;;;;;;0.00;0.00;;;;;;;18.22;73.67;100883.69;5072910;28;20547;-71
2022/06/11 03:52:58;;;;;;;0.00;0.00;;;;;;;18.20;74.16;100883.22;5073247;28;20261;-72
2022/06/11 03:55:25;;;;;;;0.00;0.00;;;;;;;18.32;74.11;100882.38;5073147;28;20175;-72
2022/06/11 03:57:51;;;;;;;0.20;0.20;;;;;;;18.28;73.52;100876.75;5072398;28;20171;-71
2022/06/11 04:01:14;;;;;;;0.00;0.00;;;;;;;18.37;72.89;100879.34;5072841;28;20178;-72
2022/06/11 04:03:06;;;;;;;0.00;0.00;;;;;;;18.34;73.03;100878.09;5072656;28;20179;-74
2022/06/11 04:05:32;;;;;;;0.00;0.00;;;;;;;18.43;73.28;100884.28;5072726;28;20170;-71
2022/06/11 04:07:58;;;;;;;0.00;0.00;;;;;;;18.44;73.38;100891.44;5072146;28;20231;-72
2022/06/11 04:10:23;;;;;;;0.00;0.00;;;;;;;18.42;73.64;100890.19;5072715;28;20701;-72
2022/06/11 04:12:48;;;;;;;0.00;0.00;;;;;;;18.34;73.40;100885.59;5072605;28;20188;-73
2022/06/11 04:15:14;;;;;;;0.00;0.00;;;;;;;18.39;73.23;100893.66;5072571;28;20175;-71
2022/06/11 04:17:40;;;;;;;1.23;1.17;;;;;;;18.39;73.77;100897.22;5071762;28;20167;-72
2022/06/11 04:20:06;;;;;;;0.00;0.00;;;;;;;18.44;73.93;100891.44;5072552;28;20178;-73
2022/06/11 04:22:31;;;;;;;0.00;0.00;;;;;;;18.49;73.20;100895.09;5071504;28;20180;-72
2022/06/11 04:24:57;;;;;;;0.00;0.00;;;;;;;18.52;72.81;100906.28;5072427;28;20185;-72
2022/06/11 04:27:23;;;;;;;0.00;0.00;;;;;;;18.47;73.85;100895.44;5072024;28;20178;-71
2022/06/11 04:29:55;;;;;;;0.00;0.00;;;;;;;18.50;74.18;100902.22;5072016;28;20209;-72
2022/06/11 04:32:22;;;;;;;0.00;0.00;;;;;;;18.62;73.30;100900.19;5072290;28;20206;-71
2022/06/11 04:34:48;;;;;;;0.00;0.00;;;;;;;18.53;74.19;100902.34;5072222;28;20583;-72
2022/06/11 04:37:16;;;;;;;0.00;0.00;;;;;;;18.55;74.46;100904.75;5071939;28;20178;-72
2022/06/11 04:39:44;;;;;;;0.00;0.00;;;;;;;18.53;74.04;100912.59;5072210;28;20636;-72
2022/06/11 04:42:11;;;;;;;0.00;0.00;;;;;;;18.70;73.16;100915.09;5072072;28;20176;-72
2022/06/11 04:44:40;;;;;;;0.00;0.00;;;;;;;18.58;74.13;100909.56;5070944;28;20194;-72
2022/06/11 04:47:07;;;;;;;0.00;0.00;;;;;;;18.70;74.11;100901.25;5071714;28;20195;-72
2022/06/11 04:49:33;;;;;;;0.00;0.00;;;;;;;18.78;74.95;100916.06;5071691;28;20171;-72
2022/06/11 04:51:58;;;;;;;0.00;0.00;;;;;;;18.78;74.88;100911.31;5071911;28;20252;-72
2022/06/11 04:54:24;;;;;;;0.10;0.10;;;;;;;18.71;75.35;100913.91;5071819;28;20649;-73
2022/06/11 04:56:49;;;;;;;0.20;0.20;;;;;;;18.62;74.86;100914.03;5070436;28;20178;-72
2022/06/11 04:59:14;;;;;;;3.60;1.57;;;;;;;18.59;74.55;100913.94;5071492;28;20175;-71
2022/06/11 05:01:41;;;;;;;0.00;0.00;;;;;;;18.55;74.46;100911.09;5071749;28;20581;-73
2022/06/11 05:04:07;;;;;;;0.93;0.83;;;;;;;18.53;74.43;100918.16;5071674;28;20182;-72
2022/06/11 05:06:39;;;;;;;0.00;0.00;;;;;;;18.50;74.21;100908.56;5071709;28;20182;-73
2022/06/11 05:09:05;;;;;;;0.03;0.03;;;;;;;18.54;74.96;100922.53;5071284;28;20189;-72
2022/06/11 05:11:31;;;;;;;0.00;0.00;;;;;;;18.50;75.08;100919.63;5071427;28;20625;-71
2022/06/11 05:13:57;;;;;;;1.23;0.83;;;;;;;18.49;75.05;100920.78;5071622;28;20206;-71
2022/06/11 05:16:22;;;;;;;0.00;0.00;;;;;;;18.49;75.45;100920.00;5071225;28;20178;-73
2022/06/11 05:18:48;;;;;;;0.20;0.20;;;;;;;18.45;75.79;100925.44;5070897;28;20170;-71
2022/06/11 05:21:14;;;;;;;0.03;0.03;;;;;;;18.44;75.48;100930.16;5071206;28;20213;-72
2022/06/11 05:23:40;;;;;;;0.10;0.10;;;;;;;18.46;75.59;100937.31;5069370;28;20210;-71
2022/06/11 05:26:06;;;;;;;0.30;0.30;;;;;;;18.47;75.46;100941.69;5071374;28;20220;-72
2022/06/11 05:28:33;;;;;;;1.00;0.47;;;;;;;18.46;75.71;100937.31;5070517;28;20174;-72
2022/06/11 05:30:59;;;;;;;0.70;0.70;;;;;;;18.48;75.87;100937.75;5071023;28;20202;-74
2022/06/11 05:33:25;;;;;;;1.77;1.67;;;;;;;18.50;75.97;100933.47;5071034;28;20177;-73
2022/06/11 05:35:52;;;;;;;0.77;0.77;;;;;;;18.52;75.86;100933.94;5071383;28;20530;-74
2022/06/11 05:38:22;;;;;;;0.37;0.30;;;;;;;18.55;76.01;100941.53;5070532;28;20175;-72
2022/06/11 05:40:48;;;;;;;0.30;0.30;;;;;;;18.55;76.10;100941.53;5070864;28;20194;-72
2022/06/11 05:43:15;;;;;;;0.37;0.37;;;;;;;18.57;76.41;100944.75;5071311;28;20178;-72
2022/06/11 05:45:56;;;;;;;0.10;0.10;;;;;;;18.61;76.71;100950.38;5070932;28;20167;-72
2022/06/11 05:48:33;;;;;;;0.00;0.00;;;;;;;18.64;76.54;100956.03;5070176;28;20186;-71
2022/06/11 05:50:59;;;;;;;0.00;0.00;;;;;;;18.64;76.69;100946.94;5070716;28;20218;-72
2022/06/11 05:53:28;;;;;;;0.17;0.17;;;;;;;18.67;76.70;100949.81;5070675;28;20644;-72
2022/06/11 05:55:57;;;;;;;0.47;0.47;;;;;;;18.66;76.70;100948.22;5070479;28;20615;-72
2022/06/11 05:58:27;;;;;;;1.33;1.23;;;;;;;18.69;77.74;100963.31;5070031;28;20182;-72
2022/06/11 06:00:53;;;;;;;0.17;0.17;;;;;;;18.68;77.15;100954.19;5070560;28;20174;-72
2022/06/11 06:03:18;;;;;;;0.73;0.70;;;;;;;18.71;77.34;100955.44;5070608;28;20205;-71
2022/06/11 06:05:44;;;;;;;0.30;0.30;;;;;;;18.73;77.37;100953.13;5070656;28;20183;-72
2022/06/11 06:08:09;;;;;;;4.90;0.60;;;;;;;18.76;77.58;100948.84;5069898;28;20186;-72
2022/06/11 06:10:35;;;;;;;0.20;0.13;;;;;;;18.80;77.28;100952.50;5070781;28;20175;-72
2022/06/11 06:13:00;;;;;;;0.17;0.07;;;;;;;18.84;77.50;100951.44;5070432;28;20178;-71
2022/06/11 06:15:30;;;;;;;1.13;1.03;;;;;;;18.89;77.69;100951.19;5070454;28;20288;-72
2022/06/11 06:17:55;;;;;;;0.37;0.37;;;;;;;18.95;77.29;100971.94;5069920;28;20181;-71
2022/06/11 06:20:23;;;;;;;0.40;0.40;;;;;;;18.99;77.20;100964.50;5070463;28;20530;-73
2022/06/11 06:22:49;;;;;;;0.40;0.40;;;;;;;19.05;77.23;100964.25;5069461;28;20684;-72
2022/06/11 06:25:19;;;;;;;3.93;0.67;;;;;;;19.07;77.61;100967.47;5070323;28;20281;-71
2022/06/11 06:27:45;;;;;;;0.50;0.43;;;;;;;19.12;77.98;100975.53;5069612;28;20183;-71
2022/06/11 06:30:11;;;;;;;1.13;1.07;;;;;;;19.15;77.61;100974.81;5070497;28;20178;-72
2022/06/11 06:32:36;;;;;;;5.60;1.10;;;;;;;19.13;77.10;100985.44;5070147;28;20213;-72
2022/06/11 06:35:02;;;;;;;0.63;0.63;;;;;;;19.17;77.84;100978.03;5070251;28;20170;-71
2022/06/11 06:37:27;;;;;;;5.13;0.73;;;;;;;19.21;78.65;100979.72;5070011;28;20248;-72
2022/06/11 06:39:53;;;;;;;0.83;0.60;;;;;;;19.22;77.75;100980.50;5069980;28;20273;-73
2022/06/11 06:42:18;;;;;;;1.70;1.60;;;;;;;19.19;78.02;100984.00;5070137;28;20185;-72
2022/06/11 06:44:43;;;;;;;1.53;1.00;;;;;;;19.25;79.01;100985.38;5070445;28;20178;-72
2022/06/11 06:47:09;;;;;;;0.83;0.83;;;;;;;19.32;78.84;100985.53;5069828;28;20190;-73
2022/06/11 06:49:34;;;;;;;0.57;0.57;;;;;;;19.40;78.81;100992.88;5069819;28;20265;-71
2022/06/11 06:52:00;;;;;;;6.70;1.70;;;;;;;19.45;78.31;100989.81;5070149;28;20194;-72
2022/06/11 06:54:25;;;;;;;17.93;1.33;;;;;;;19.48;78.77;100988.28;5070080;28;20250;-72
2022/06/11 06:56:51;;;;;;;0.47;0.47;;;;;;;19.50;78.28;100997.06;5069716;28;20231;-72
2022/06/11 06:59:16;;;;;;;3.73;1.63;;;;;;;19.50;78.83;101000.63;5069955;28;20377;-71
2022/06/11 07:01:42;;;;;;;0.30;0.30;;;;;;;19.41;78.48;100994.47;5069987;28;20531;-72
2022/06/11 07:04:07;;;;;;;4.20;0.60;;;;;;;19.44;79.08;100992.94;5070362;28;20200;-72
2022/06/11 07:06:34;;;;;;;0.10;0.10;;;;;;;19.43;79.30;100991.34;5069797;28;20174;-74
2022/06/11 07:08:59;;;;;;;2.33;1.80;;;;;;;19.41;79.87;100999.22;5073323;28;20177;-71
2022/06/11 07:11:25;;;;;;;0.00;0.00;;;;;;;19.29;80.39;100997.34;5073655;28;20553;-73
2022/06/11 07:13:50;;;;;;;0.53;0.53;;;;;;;19.26;81.05;100998.84;5073948;28;20178;-73
2022/06/11 07:16:21;;;;;;;0.50;0.50;;;;;;;19.22;81.70;100991.59;5073694;28;20178;-72
2022/06/11 07:18:53;;;;;;;0.47;0.47;;;;;;;19.20;81.84;100991.94;5073111;28;20174;-72
2022/06/11 07:21:22;;;;;;;0.37;0.37;;;;;;;19.17;81.84;101003.75;5072899;28;20650;-75
2022/06/11 07:24:14;;;;;;;5.97;0.97;;;;;;;19.18;81.44;101005.34;5073749;28;20228;-72
2022/06/11 07:26:44;;;;;;;0.23;0.23;;;;;;;19.24;81.76;101000.34;5073274;28;20197;-72
2022/06/11 07:29:19;;;;;;;0.97;0.97;;;;;;;19.33;81.41;100998.22;5073081;28;20171;-72
2022/06/11 07:31:47;;;;;;;0.37;0.37;;;;;;;19.42;81.70;100996.09;5073204;28;20237;-73
2022/06/11 07:34:13;;;;;;;0.00;0.00;;;;;;;19.53;80.85;100996.38;5073305;28;20642;-72
2022/06/11 07:36:39;;;;;;;0.20;0.20;;;;;;;19.54;80.86;101004.34;5073384;28;20179;-72
2022/06/11 07:39:04;;;;;;;1.67;0.90;;;;;;;19.54;80.72;101003.50;5072960;28;20621;-71
2022/06/11 07:41:30;;;;;;;0.83;0.83;;;;;;;19.67;81.64;101007.00;5073312;28;20178;-72
2022/06/11 07:43:56;;;;;;;0.10;0.10;;;;;;;19.77;80.57;101001.72;5073287;28;20273;-72
2022/06/11 07:46:21;;;;;;;3.80;2.03;;;;;;;20.07;79.61;101007.56;5073051;28;20178;-71
2022/06/11 07:48:48;;;;;;;3.10;0.73;;;;;;;20.20;76.98;101011.00;5073041;28;20209;-71
2022/06/11 07:51:18;;;;;;;0.40;0.27;;;;;;;20.23;75.44;101007.50;5073194;28;20218;-71
2022/06/11 07:53:46;;;;;;;1.13;1.00;;;;;;;20.46;75.90;101019.56;5072992;28;20457;-72
2022/06/11 07:56:12;;;;;;;0.80;0.80;;;;;;;20.50;75.17;101005.75;5072950;28;20178;-73
2022/06/11 07:58:38;;;;;;;1.07;0.60;;;;;;;20.49;73.69;101013.25;5072414;28;20167;-72
2022/06/11 08:01:05;;;;;;;0.60;0.60;;;;;;;20.77;70.78;101009.47;5072951;28;20598;-71
2022/06/11 08:03:32;;;;;;;1.13;0.73;;;;;;;20.78;68.19;101006.31;5072935;28;20201;-71
2022/06/11 08:05:59;;;;;;;0.20;0.20;;;;;;;20.92;68.54;101014.13;5072745;28;20225;-73
2022/06/11 08:08:24;;;;;;;0.13;0.13;;;;;;;21.22;69.58;101013.47;5072548;28;20619;-71
2022/06/11 08:10:50;;;;;;;0.10;0.10;;;;;;;21.10;65.69;101012.47;5072567;28;20206;-72
2022/06/11 08:13:16;;;;;;;0.30;0.30;;;;;;;21.12;66.09;101011.31;5072711;28;20172;-72
2022/06/11 08:15:43;;;;;;;0.00;0.00;;;;;;;21.12;65.24;101020.47;5072650;28;20660;-72
2022/06/11 08:18:09;;;;;;;0.57;0.57;;;;;;;21.06;66.36;101013.59;5071668;28;20674;-71
2022/06/11 08:20:36;;;;;;;0.73;0.40;;;;;;;21.21;67.58;101015.47;5072565;28;20175;-72
2022/06/11 08:23:02;;;;;;;0.47;0.47;;;;;;;21.33;65.97;101009.75;5071480;28;20178;-71
2022/06/11 08:25:27;;;;;;;0.83;0.83;;;;;;;21.41;65.85;101016.25;5072442;28;20183;-72
2022/06/11 08:27:54;;;;;;;0.40;0.40;;;;;;;21.49;65.99;101003.25;5071805;28;20167;-72
2022/06/11 08:30:22;;;;;;;0.60;0.60;;;;;;;21.48;67.84;101004.44;5072392;28;20209;-72
2022/06/11 08:32:48;;;;;;;0.60;0.40;;;;;;;21.56;68.20;101001.41;5070933;28;20206;-72
2022/06/11 08:35:15;;;;;;;0.50;0.50;;;;;;;21.68;67.24;101001.19;5072119;28;20203;-72
2022/06/11 08:37:40;;;;;;;2.43;0.50;;;;;;;21.72;64.96;101003.25;5071641;28;20179;-72
2022/06/11 08:40:11;;;;;;;0.83;0.37;;;;;;;21.69;65.14;101004.78;5072106;28;20523;-72
2022/06/11 08:42:40;;;;;;;0.70;0.70;;;;;;;21.74;67.12;101001.69;5072459;28;20488;-71
2022/06/11 08:45:20;;;;;;;0.83;0.60;;;;;;;21.84;66.73;101003.00;5072012;28;20250;-71
2022/06/11 08:47:49;;;;;;;4.53;0.10;;;;;;;21.72;67.07;101012.41;5071253;28;20226;-73
2022/06/11 08:50:19;;;;;;;0.30;0.30;;;;;;;21.80;64.83;101000.19;5071976;28;20167;-71
2022/06/11 08:52:45;;;;;;;0.17;0.13;;;;;;;21.87;64.91;101005.88;5071861;28;20207;-72
2022/06/11 08:55:11;;;;;;;0.10;0.10;;;;;;;21.94;65.27;101003.19;5071938;28;20509;-71
2022/06/11 08:57:56;;;;;;;0.30;0.30;;;;;;;21.96;66.10;101000.03;5071477;28;20194;-71
2022/06/11 09:00:32;;;;;;;0.20;0.20;;;;;;;21.95;63.66;100998.41;5071761;28;20168;-72
2022/06/11 09:03:23;;;;;;;3.97;1.07;;;;;;;22.03;64.89;100997.34;5071899;28;20643;-73
2022/06/11 09:05:48;;;;;;;0.00;0.00;;;;;;;22.12;64.49;100989.53;5071720;28;20301;-72
2022/06/11 09:08:53;;;;;;;0.00;0.00;;;;;;;22.25;63.94;100996.50;5071284;28;20266;-72
2022/06/11 09:11:33;;;;;;;0.23;0.23;;;;;;;22.51;63.72;100994.84;5060313;28;20218;-71
2022/06/11 09:14:22;;;;;;;0.50;0.50;;;;;;;22.59;62.51;100998.53;5071602;28;20178;-72
2022/06/11 09:17:24;;;;;;;11.63;1.50;;;;;;;22.39;60.40;100992.28;5069856;28;20522;-72
2022/06/11 09:19:49;;;;;;;4.10;0.40;;;;;;;22.39;61.08;100998.66;5071118;28;20176;-71
2022/06/11 09:22:26;;;;;;;0.10;0.10;;;;;;;22.43;60.54;100999.53;5069893;28;20257;-73
2022/06/11 09:25:10;;;;;;;0.67;0.67;;;;;;;22.35;60.62;100995.03;5071264;28;20514;-72
2022/06/11 09:27:46;;;;;;;0.20;0.20;;;;;;;22.37;61.93;100995.47;5071254;28;20582;-71
2022/06/11 09:30:16;;;;;;;0.40;0.40;;;;;;;22.41;61.93;101001.88;5071344;28;20177;-72
2022/06/11 09:32:51;;;;;;;0.20;0.20;;;;;;;22.52;61.81;101008.38;5071181;28;20206;-72
2022/06/11 09:35:20;;;;;;;0.90;0.90;;;;;;;22.55;61.85;101001.25;5071223;28;20206;-71
2022/06/11 09:37:51;;;;;;;0.20;0.20;;;;;;;22.76;62.61;101000.72;5070389;28;20693;-72
2022/06/11 09:40:32;;;;;;;0.20;0.20;;;;;;;22.61;60.71;101005.31;5070989;28;20181;-71
2022/06/11 09:43:03;;;;;;;0.33;0.33;;;;;;;22.71;61.72;100999.06;5071004;28;20235;-72
2022/06/11 09:45:50;;;;;;;11.87;1.07;;;;;;;22.95;60.02;100994.16;5071233;28;20480;-72
2022/06/11 09:48:30;;;;;;;0.10;0.10;;;;;;;22.92;59.49;100995.75;5070271;28;20198;-72
2022/06/11 09:51:14;;;;;;;0.33;0.33;;;;;;;23.24;60.11;101001.63;5071153;28;20212;-72
2022/06/11 09:54:04;;;;;;;0.27;0.27;;;;;;;23.20;58.69;101002.78;5070737;28;20181;-72
2022/06/11 09:57:00;;;;;;;0.23;0.23;;;;;;;23.14;57.80;101005.91;5070822;28;20175;-74
2022/06/11 09:59:25;;;;;;;0.43;0.43;;;;;;;23.10;56.78;101005.09;5070383;28;20324;-74
2022/06/11 10:02:02;;;;;;;0.27;0.27;;;;;;;23.29;55.84;101011.63;5070864;28;20257;-74
2022/06/11 10:04:35;;;;;;;0.10;0.10;;;;;;;23.45;56.26;101003.81;5070555;28;20170;-74
2022/06/11 10:07:14;;;;;;;0.93;0.50;;;;;;;23.24;56.47;101003.63;5070329;28;20750;-74
2022/06/11 10:09:50;;;;;;;0.10;0.10;;;;;;;23.14;57.37;101005.09;5070367;28;20179;-74
2022/06/11 10:12:36;;;;;;;0.20;0.10;;;;;;;23.42;57.22;101010.97;5070588;28;20293;-74
2022/06/11 10:15:04;;;;;;;0.10;0.10;;;;;;;23.44;56.89;101007.81;5070968;28;20175;-75
2022/06/11 10:17:37;;;;;;;0.30;0.30;;;;;;;23.66;54.62;101008.81;5069849;28;20235;-76
2022/06/11 10:20:24;;;;;;;0.50;0.33;;;;;;;23.93;54.88;101020.56;5070568;28;20202;-74
2022/06/11 10:23:12;;;;;;;0.30;0.30;;;;;;;23.80;53.44;101016.47;5069133;28;20186;-72
2022/06/11 10:25:40;;;;;;;0.10;0.10;;;;;;;23.61;54.15;101012.75;5070254;28;20186;-71
2022/06/11 10:28:18;;;;;;;1.13;0.20;;;;;;;23.65;56.49;101008.00;5069908;28;20181;-72
2022/06/11 10:30:58;;;;;;;0.50;0.50;;;;;;;23.39;54.74;101017.31;5070108;28;20167;-71
2022/06/11 10:33:39;;;;;;;0.27;0.27;;;;;;;23.27;54.50;101020.38;5070236;28;20696;-72
2022/06/11 10:36:15;;;;;;;0.20;0.20;;;;;;;23.39;55.89;101030.44;5070161;28;20174;-71
2022/06/11 10:38:56;;;;;;;0.50;0.30;;;;;;;23.64;56.00;101025.94;5069623;28;20172;-72
2022/06/11 10:41:36;;;;;;;0.00;0.00;;;;;;;23.84;56.12;101020.09;5070353;28;20181;-72
2022/06/11 10:44:25;;;;;;;0.50;0.50;;;;;;;24.00;55.10;101023.38;5072838;28;20379;-72
2022/06/11 10:46:52;;;;;;;0.43;0.43;;;;;;;23.94;54.44;101016.56;5073976;28;20628;-73
2022/06/11 10:49:22;;;;;;;0.37;0.37;;;;;;;23.64;55.42;101022.34;5073903;28;20170;-73
2022/06/11 10:51:58;;;;;;;0.10;0.10;;;;;;;23.41;57.05;101016.91;5074229;28;20542;-72
2022/06/11 10:54:26;;;;;;;0.13;0.13;;;;;;;23.29;57.12;101028.34;5074180;28;20178;-72
2022/06/11 10:56:58;;;;;;;1.70;0.63;;;;;;;23.04;57.31;101015.00;5073753;28;20235;-72
2022/06/11 10:59:29;;;;;;;0.20;0.20;;;;;;;23.18;59.21;101014.34;5073672;28;20227;-72
2022/06/11 11:02:32;;;;;;;0.13;0.13;;;;;;;23.53;57.11;101016.63;5074094;28;20179;-72
2022/06/11 11:04:59;;;;;;;0.30;0.20;;;;;;;23.69;57.80;101014.41;5073833;28;20174;-71
2022/06/11 11:07:25;;;;;;;0.13;0.13;;;;;;;23.83;55.73;101012.91;5073236;28;20645;-72
2022/06/11 11:09:58;;;;;;;0.00;0.00;;;;;;;23.95;54.57;101010.59;5073653;28;20185;-72
2022/06/11 11:12:28;;;;;;;0.20;0.20;;;;;;;24.12;54.31;101008.31;5072481;28;20210;-71
2022/06/11 11:15:11;;;;;;;0.47;0.23;;;;;;;23.90;54.05;101004.59;5073769;28;20187;-71
2022/06/11 11:17:45;;;;;;;0.03;0.03;;;;;;;24.17;53.79;101014.34;5072984;28;20175;-73
2022/06/11 11:20:35;;;;;;;0.07;0.07;;;;;;;24.19;54.18;101009.16;5073871;28;20190;-72
2022/06/11 11:23:09;;;;;;;0.13;0.13;;;;;;;24.23;53.30;101006.38;5072114;28;20175;-72
2022/06/11 11:25:42;;;;;;;0.30;0.30;;;;;;;23.96;52.94;101009.41;5073947;28;20186;-71
2022/06/11 11:28:18;;;;;;;0.10;0.10;;;;;;;24.01;52.35;101013.81;5072950;28;20269;-73
2022/06/11 11:30:44;;;;;;;0.20;0.20;;;;;;;24.17;52.61;101008.75;5073551;28;20245;-72
2022/06/11 11:33:32;;;;;;;0.30;0.30;;;;;;;24.25;53.17;101004.00;5073338;28;20244;-73
2022/06/11 11:36:10;;;;;;;0.00;0.00;;;;;;;24.32;52.76;101004.88;5073361;28;20231;-72
2022/06/11 11:38:36;;;;;;;0.00;0.00;;;;;;;24.50;51.91;101004.97;5072901;28;20536;-71
2022/06/11 11:41:03;;;;;;;0.00;0.00;;;;;;;24.47;51.53;100997.38;5073694;28;20178;-71
2022/06/11 11:43:39;;;;;;;0.60;0.23;;;;;;;24.52;52.63;100996.19;5073180;28;20170;-72